sensor_id;sensor_type;location;lat;lon;timestamp;pressure;altitude;pressure_sealevel;temperature;humidity
10115;BME280;5097;43.260;27.812;2023-02-10T00:00:18;102447.94;;;-6.81;77.69
10115;BME280;5097;43.260;27.812;2023-02-10T00:03:02;102477.00;;;-6.82;77.67
10115;BME280;5097;43.260;27.812;2023-02-10T00:05:46;102467.00;;;-6.77;77.63
10115;BME280;5097;43.260;27.812;2023-02-10T00:08:31;102479.28;;;-7.03;78.00
10115;BME280;5097;43.260;27.812;2023-02-10T00:11:15;102478.72;;;-6.97;78.13
10115;BME280;5097;43.260;27.812;2023-02-10T00:14:00;102478.44;;;-7.02;77.87
10115;BME280;5097;43.260;27.812;2023-02-10T00:16:44;102465.53;;;-7.18;78.11
10115;BME280;5097;43.260;27.812;2023-02-10T00:19:29;102466.63;;;-7.15;78.51
10115;BME280;5097;43.260;27.812;2023-02-10T00:22:13;102472.81;;;-7.11;78.42
10115;BME280;5097;43.260;27.812;2023-02-10T00:24:57;102464.28;;;-7.10;78.27
10115;BME280;5097;43.260;27.812;2023-02-10T00:27:41;102470.75;;;-7.02;77.75
10115;BME280;5097;43.260;27.812;2023-02-10T00:30:28;102408.16;;;-7.64;78.01
10115;BME280;5097;43.260;27.812;2023-02-10T00:33:12;102463.84;;;-7.33;78.60
10115;BME280;5097;43.260;27.812;2023-02-10T00:35:56;102457.03;;;-7.17;77.85
10115;BME280;5097;43.260;27.812;2023-02-10T00:38:40;102396.78;;;-7.54;77.44
10115;BME280;5097;43.260;27.812;2023-02-10T00:41:24;102449.81;;;-7.25;77.70
10115;BME280;5097;43.260;27.812;2023-02-10T00:44:08;102445.63;;;-7.37;77.65
10115;BME280;5097;43.260;27.812;2023-02-10T00:46:54;102444.81;;;-7.21;77.38
10115;BME280;5097;43.260;27.812;2023-02-10T00:49:38;102440.75;;;-7.33;77.50
10115;BME280;5097;43.260;27.812;2023-02-10T00:52:22;102436.16;;;-7.38;77.83
10115;BME280;5097;43.260;27.812;2023-02-10T00:55:07;102436.59;;;-7.46;78.83
10115;BME280;5097;43.260;27.812;2023-02-10T00:57:50;102428.28;;;-7.56;78.25
10115;BME280;5097;43.260;27.812;2023-02-10T01:00:34;102453.16;;;-7.26;77.83
10115;BME280;5097;43.260;27.812;2023-02-10T01:03:20;102450.16;;;-7.33;78.42
10115;BME280;5097;43.260;27.812;2023-02-10T01:06:05;102435.88;;;-7.28;77.81
10115;BME280;5097;43.260;27.812;2023-02-10T01:08:49;102435.81;;;-7.45;78.28
10115;BME280;5097;43.260;27.812;2023-02-10T01:11:33;102422.34;;;-7.41;78.08
10115;BME280;5097;43.260;27.812;2023-02-10T01:14:17;102423.47;;;-7.35;78.29
10115;BME280;5097;43.260;27.812;2023-02-10T01:17:02;102437.56;;;-7.44;77.91
10115;BME280;5097;43.260;27.812;2023-02-10T01:19:47;102433.94;;;-7.32;77.29
10115;BME280;5097;43.260;27.812;2023-02-10T01:22:33;102426.78;;;-7.38;77.48
10115;BME280;5097;43.260;27.812;2023-02-10T01:25:19;102429.59;;;-7.33;77.64
10115;BME280;5097;43.260;27.812;2023-02-10T01:28:05;102428.19;;;-7.28;77.35
10115;BME280;5097;43.260;27.812;2023-02-10T01:30:49;102426.75;;;-7.23;77.21
10115;BME280;5097;43.260;27.812;2023-02-10T01:33:33;102436.50;;;-7.17;76.99
10115;BME280;5097;43.260;27.812;2023-02-10T01:36:21;102371.63;;;-7.60;77.06
10115;BME280;5097;43.260;27.812;2023-02-10T01:39:06;102391.34;;;-7.44;76.74
10115;BME280;5097;43.260;27.812;2023-02-10T01:41:50;102371.38;;;-7.64;75.82
10115;BME280;5097;43.260;27.812;2023-02-10T01:47:59;102414.03;;;-7.36;76.70
10115;BME280;5097;43.260;27.812;2023-02-10T01:50:49;102380.22;;;-7.74;77.06
10115;BME280;5097;43.260;27.812;2023-02-10T01:53:37;102428.88;;;-7.31;76.73
10115;BME280;5097;43.260;27.812;2023-02-10T01:56:21;102433.16;;;-7.31;76.79
10115;BME280;5097;43.260;27.812;2023-02-10T01:59:05;102409.94;;;-7.33;76.61
10115;BME280;5097;43.260;27.812;2023-02-10T02:01:51;102370.91;;;-7.57;76.45
10115;BME280;5097;43.260;27.812;2023-02-10T02:04:39;102422.13;;;-7.29;76.25
10115;BME280;5097;43.260;27.812;2023-02-10T02:07:26;102415.59;;;-7.38;76.22
10115;BME280;5097;43.260;27.812;2023-02-10T02:10:14;102354.34;;;-7.62;76.41
10115;BME280;5097;43.260;27.812;2023-02-10T02:13:05;102365.16;;;-7.53;76.32
10115;BME280;5097;43.260;27.812;2023-02-10T02:15:57;102378.94;;;-7.36;75.18
10115;BME280;5097;43.260;27.812;2023-02-10T02:18:47;102344.53;;;-7.54;75.00
10115;BME280;5097;43.260;27.812;2023-02-10T02:21:57;102393.28;;;-7.25;75.13
10115;BME280;5097;43.260;27.812;2023-02-10T02:28:22;102378.06;;;-7.36;74.90
10115;BME280;5097;43.260;27.812;2023-02-10T02:31:42;102397.72;;;-7.37;75.53
10115;BME280;5097;43.260;27.812;2023-02-10T02:34:33;102403.75;;;-7.36;75.41
10115;BME280;5097;43.260;27.812;2023-02-10T02:37:22;102341.44;;;-7.64;75.17
10115;BME280;5097;43.260;27.812;2023-02-10T02:40:08;102389.06;;;-7.39;74.96
10115;BME280;5097;43.260;27.812;2023-02-10T02:42:53;102336.31;;;-7.64;74.78
10115;BME280;5097;43.260;27.812;2023-02-10T02:45:46;102287.56;;;-7.94;74.61
10115;BME280;5097;43.260;27.812;2023-02-10T02:48:46;102391.53;;;-7.26;74.90
10115;BME280;5097;43.260;27.812;2023-02-10T02:51:39;102343.72;;;-7.38;74.22
10115;BME280;5097;43.260;27.812;2023-02-10T02:54:31;102340.56;;;-7.64;74.77
10115;BME280;5097;43.260;27.812;2023-02-10T02:57:22;102358.59;;;-7.48;74.04
10115;BME280;5097;43.260;27.812;2023-02-10T03:00:15;102405.03;;;-7.13;73.58
10115;BME280;5097;43.260;27.812;2023-02-10T03:03:02;102352.69;;;-7.62;73.94
10115;BME280;5097;43.260;27.812;2023-02-10T03:05:48;102391.19;;;-7.47;74.51
10115;BME280;5097;43.260;27.812;2023-02-10T03:08:34;102348.34;;;-7.78;74.64
10115;BME280;5097;43.260;27.812;2023-02-10T03:11:19;102340.81;;;-7.75;74.30
10115;BME280;5097;43.260;27.812;2023-02-10T03:14:03;102384.69;;;-7.25;74.36
10115;BME280;5097;43.260;27.812;2023-02-10T03:16:47;102337.22;;;-7.63;74.37
10115;BME280;5097;43.260;27.812;2023-02-10T03:19:32;102330.22;;;-7.81;74.76
10115;BME280;5097;43.260;27.812;2023-02-10T03:22:17;102329.16;;;-7.69;75.31
10115;BME280;5097;43.260;27.812;2023-02-10T03:25:01;102323.91;;;-7.56;74.83
10115;BME280;5097;43.260;27.812;2023-02-10T03:27:46;102278.91;;;-7.81;74.36
10115;BME280;5097;43.260;27.812;2023-02-10T03:30:30;102329.84;;;-7.72;74.40
10115;BME280;5097;43.260;27.812;2023-02-10T03:33:14;102307.28;;;-7.63;74.08
10115;BME280;5097;43.260;27.812;2023-02-10T03:35:58;102317.03;;;-7.72;74.35
10115;BME280;5097;43.260;27.812;2023-02-10T03:38:44;102344.97;;;-7.47;74.47
10115;BME280;5097;43.260;27.812;2023-02-10T03:41:28;102307.81;;;-7.68;74.65
10115;BME280;5097;43.260;27.812;2023-02-10T03:44:12;102353.53;;;-7.31;74.20
10115;BME280;5097;43.260;27.812;2023-02-10T03:46:56;102355.00;;;-7.20;73.98
10115;BME280;5097;43.260;27.812;2023-02-10T03:49:40;102364.19;;;-7.09;73.29
10115;BME280;5097;43.260;27.812;2023-02-10T03:52:23;102301.06;;;-7.66;73.58
10115;BME280;5097;43.260;27.812;2023-02-10T03:55:09;102293.47;;;-7.80;73.94
10115;BME280;5097;43.260;27.812;2023-02-10T03:57:56;102293.28;;;-7.68;73.44
10115;BME280;5097;43.260;27.812;2023-02-10T04:00:40;102285.69;;;-7.66;74.08
10115;BME280;5097;43.260;27.812;2023-02-10T04:03:24;102299.03;;;-7.57;74.19
10115;BME280;5097;43.260;27.812;2023-02-10T04:06:09;102333.16;;;-7.28;74.79
10115;BME280;5097;43.260;27.812;2023-02-10T04:08:53;102329.72;;;-7.44;74.67
10115;BME280;5097;43.260;27.812;2023-02-10T04:11:39;102325.53;;;-7.27;74.35
10115;BME280;5097;43.260;27.812;2023-02-10T04:14:23;102329.31;;;-7.20;73.36
10115;BME280;5097;43.260;27.812;2023-02-10T04:17:07;102285.94;;;-7.30;72.84
10115;BME280;5097;43.260;27.812;2023-02-10T04:19:51;102281.50;;;-7.18;72.24
10115;BME280;5097;43.260;27.812;2023-02-10T04:22:35;102238.63;;;-7.19;72.28
10115;BME280;5097;43.260;27.812;2023-02-10T04:25:19;102286.00;;;-6.97;71.94
10115;BME280;5097;43.260;27.812;2023-02-10T04:28:05;102290.59;;;-6.92;72.06
10115;BME280;5097;43.260;27.812;2023-02-10T04:30:50;102300.78;;;-6.77;72.24
10115;BME280;5097;43.260;27.812;2023-02-10T04:33:34;102319.28;;;-6.67;71.67
10115;BME280;5097;43.260;27.812;2023-02-10T04:36:18;102282.16;;;-6.72;71.84
10115;BME280;5097;43.260;27.812;2023-02-10T04:39:02;102305.97;;;-6.60;70.67
10115;BME280;5097;43.260;27.812;2023-02-10T04:41:48;102339.13;;;-6.81;70.48
10115;BME280;5097;43.260;27.812;2023-02-10T04:44:33;102339.69;;;-6.54;70.08
10115;BME280;5097;43.260;27.812;2023-02-10T04:47:17;102299.16;;;-7.08;70.32
10115;BME280;5097;43.260;27.812;2023-02-10T04:50:01;102304.28;;;-7.24;71.09
10115;BME280;5097;43.260;27.812;2023-02-10T04:52:46;102293.50;;;-7.33;71.04
10115;BME280;5097;43.260;27.812;2023-02-10T04:55:30;102258.78;;;-7.58;70.70
10115;BME280;5097;43.260;27.812;2023-02-10T04:58:15;102304.94;;;-7.12;70.07
10115;BME280;5097;43.260;27.812;2023-02-10T05:01:00;102303.50;;;-6.90;69.63
10115;BME280;5097;43.260;27.812;2023-02-10T05:03:44;102344.03;;;-6.69;69.62
10115;BME280;5097;43.260;27.812;2023-02-10T05:06:29;102339.13;;;-6.81;69.85
10115;BME280;5097;43.260;27.812;2023-02-10T05:09:13;102300.94;;;-7.07;69.36
10115;BME280;5097;43.260;27.812;2023-02-10T05:11:57;102331.16;;;-6.86;70.36
10115;BME280;5097;43.260;27.812;2023-02-10T05:14:41;102269.94;;;-6.77;69.14
10115;BME280;5097;43.260;27.812;2023-02-10T05:17:26;102333.56;;;-6.23;68.34
10115;BME280;5097;43.260;27.812;2023-02-10T05:20:10;102334.94;;;-6.30;68.27
10115;BME280;5097;43.260;27.812;2023-02-10T05:22:54;102279.91;;;-6.66;68.21
10115;BME280;5097;43.260;27.812;2023-02-10T05:25:38;102340.66;;;-6.35;68.20
10115;BME280;5097;43.260;27.812;2023-02-10T05:28:23;102322.00;;;-6.31;68.33
10115;BME280;5097;43.260;27.812;2023-02-10T05:31:07;102344.81;;;-6.21;68.25
10115;BME280;5097;43.260;27.812;2023-02-10T05:33:52;102339.22;;;-6.47;69.43
10115;BME280;5097;43.260;27.812;2023-02-10T05:36:37;102346.25;;;-6.59;68.77
10115;BME280;5097;43.260;27.812;2023-02-10T05:39:21;102294.94;;;-6.74;68.47
10115;BME280;5097;43.260;27.812;2023-02-10T05:42:08;102295.84;;;-6.74;67.88
10115;BME280;5097;43.260;27.812;2023-02-10T05:44:53;102350.84;;;-6.37;67.38
10115;BME280;5097;43.260;27.812;2023-02-10T05:47:37;102344.84;;;-6.37;66.75
10115;BME280;5097;43.260;27.812;2023-02-10T05:50:22;102287.28;;;-6.72;67.18
10115;BME280;5097;43.260;27.812;2023-02-10T05:53:07;102342.09;;;-6.24;67.10
10115;BME280;5097;43.260;27.812;2023-02-10T05:55:51;102344.13;;;-6.00;66.34
10115;BME280;5097;43.260;27.812;2023-02-10T05:58:35;102347.78;;;-5.95;66.02
10115;BME280;5097;43.260;27.812;2023-02-10T06:01:19;102308.81;;;-6.21;65.62
10115;BME280;5097;43.260;27.812;2023-02-10T06:04:03;102282.63;;;-6.30;65.29
10115;BME280;5097;43.260;27.812;2023-02-10T06:06:49;102340.53;;;-6.04;65.08
10115;BME280;5097;43.260;27.812;2023-02-10T06:09:33;102290.66;;;-6.41;65.39
10115;BME280;5097;43.260;27.812;2023-02-10T06:12:19;102301.94;;;-6.04;64.27
10115;BME280;5097;43.260;27.812;2023-02-10T06:15:03;102314.81;;;-5.50;63.61
10115;BME280;5097;43.260;27.812;2023-02-10T06:17:47;102346.22;;;-5.03;62.78
10115;BME280;5097;43.260;27.812;2023-02-10T06:20:31;102298.94;;;-5.03;62.57
10115;BME280;5097;43.260;27.812;2023-02-10T06:23:17;102268.34;;;-5.33;62.30
10115;BME280;5097;43.260;27.812;2023-02-10T06:26:01;102310.09;;;-5.59;65.31
10115;BME280;5097;43.260;27.812;2023-02-10T06:28:46;102314.38;;;-5.59;65.33
10115;BME280;5097;43.260;27.812;2023-02-10T06:31:30;102357.81;;;-4.93;65.46
10115;BME280;5097;43.260;27.812;2023-02-10T06:34:14;102369.78;;;-5.13;65.91
10115;BME280;5097;43.260;27.812;2023-02-10T06:36:58;102372.16;;;-5.18;65.28
10115;BME280;5097;43.260;27.812;2023-02-10T06:39:43;102367.56;;;-5.06;66.18
10115;BME280;5097;43.260;27.812;2023-02-10T06:42:27;102357.41;;;-5.39;65.72
10115;BME280;5097;43.260;27.812;2023-02-10T06:45:11;102367.13;;;-5.51;68.05
10115;BME280;5097;43.260;27.812;2023-02-10T06:47:55;102369.34;;;-5.41;67.66
10115;BME280;5097;43.260;27.812;2023-02-10T06:50:39;102343.59;;;-5.41;67.65
10115;BME280;5097;43.260;27.812;2023-02-10T06:53:23;102363.88;;;-5.11;66.72
10115;BME280;5097;43.260;27.812;2023-02-10T06:56:08;102359.34;;;-5.16;63.80
10115;BME280;5097;43.260;27.812;2023-02-10T06:58:52;102366.28;;;-4.58;61.62
10115;BME280;5097;43.260;27.812;2023-02-10T07:01:35;102364.03;;;-4.11;59.79
10115;BME280;5097;43.260;27.812;2023-02-10T07:04:20;102356.50;;;-4.07;57.71
10115;BME280;5097;43.260;27.812;2023-02-10T07:07:04;102355.41;;;-3.92;56.81
10115;BME280;5097;43.260;27.812;2023-02-10T07:09:48;102367.88;;;-3.82;56.33
10115;BME280;5097;43.260;27.812;2023-02-10T07:12:37;102356.19;;;-3.74;56.10
10115;BME280;5097;43.260;27.812;2023-02-10T07:15:21;102369.66;;;-3.60;55.81
10115;BME280;5097;43.260;27.812;2023-02-10T07:18:05;102342.31;;;-3.76;55.15
10115;BME280;5097;43.260;27.812;2023-02-10T07:20:49;102340.59;;;-3.54;54.51
10115;BME280;5097;43.260;27.812;2023-02-10T07:23:33;102372.13;;;-3.19;52.28
10115;BME280;5097;43.260;27.812;2023-02-10T07:26:18;102372.75;;;-2.81;53.55
10115;BME280;5097;43.260;27.812;2023-02-10T07:29:03;102362.63;;;-2.97;52.90
10115;BME280;5097;43.260;27.812;2023-02-10T07:31:47;102339.22;;;-2.78;53.40
10115;BME280;5097;43.260;27.812;2023-02-10T07:34:31;102369.81;;;-2.67;55.40
10115;BME280;5097;43.260;27.812;2023-02-10T07:37:16;102361.84;;;-2.72;54.99
10115;BME280;5097;43.260;27.812;2023-02-10T07:40:00;102380.72;;;-2.75;51.53
10115;BME280;5097;43.260;27.812;2023-02-10T07:42:45;102370.09;;;-2.60;52.53
10115;BME280;5097;43.260;27.812;2023-02-10T07:45:53;102364.47;;;-2.48;53.95
10115;BME280;5097;43.260;27.812;2023-02-10T07:48:37;102356.25;;;-2.60;54.34
10115;BME280;5097;43.260;27.812;2023-02-10T07:51:21;102382.97;;;-2.61;54.49
10115;BME280;5097;43.260;27.812;2023-02-10T07:54:05;102380.97;;;-2.91;54.04
10115;BME280;5097;43.260;27.812;2023-02-10T07:56:48;102384.50;;;-3.12;55.35
10115;BME280;5097;43.260;27.812;2023-02-10T07:59:32;102386.38;;;-3.08;55.63
10115;BME280;5097;43.260;27.812;2023-02-10T08:02:17;102370.47;;;-2.96;55.89
10115;BME280;5097;43.260;27.812;2023-02-10T08:05:01;102379.84;;;-2.98;55.85
10115;BME280;5097;43.260;27.812;2023-02-10T08:07:45;102365.69;;;-2.85;55.92
10115;BME280;5097;43.260;27.812;2023-02-10T08:10:29;102372.50;;;-2.64;55.04
10115;BME280;5097;43.260;27.812;2023-02-10T08:13:13;102378.50;;;-2.88;54.36
10115;BME280;5097;43.260;27.812;2023-02-10T08:15:57;102323.94;;;-2.72;54.62
10115;BME280;5097;43.260;27.812;2023-02-10T08:18:42;102369.34;;;-2.33;54.46
10115;BME280;5097;43.260;27.812;2023-02-10T08:21:26;102383.16;;;-2.57;53.64
10115;BME280;5097;43.260;27.812;2023-02-10T08:24:10;102386.91;;;-2.24;52.39
10115;BME280;5097;43.260;27.812;2023-02-10T08:26:54;102377.94;;;-2.34;51.98
10115;BME280;5097;43.260;27.812;2023-02-10T08:29:37;102355.94;;;-2.45;51.83
10115;BME280;5097;43.260;27.812;2023-02-10T08:32:22;102377.22;;;-1.80;51.19
10115;BME280;5097;43.260;27.812;2023-02-10T08:35:07;102374.75;;;-2.01;50.04
10115;BME280;5097;43.260;27.812;2023-02-10T08:37:51;102378.19;;;-2.02;51.06
10115;BME280;5097;43.260;27.812;2023-02-10T08:40:36;102379.84;;;-1.78;49.84
10115;BME280;5097;43.260;27.812;2023-02-10T08:43:19;102348.63;;;-1.83;49.06
10115;BME280;5097;43.260;27.812;2023-02-10T08:46:03;102375.84;;;-1.43;49.36
10115;BME280;5097;43.260;27.812;2023-02-10T08:48:47;102381.78;;;-1.47;49.74
10115;BME280;5097;43.260;27.812;2023-02-10T08:51:33;102389.66;;;-1.44;46.97
10115;BME280;5097;43.260;27.812;2023-02-10T08:54:17;102383.81;;;-1.64;47.85
10115;BME280;5097;43.260;27.812;2023-02-10T08:57:00;102380.94;;;-1.97;47.04
10115;BME280;5097;43.260;27.812;2023-02-10T08:59:44;102378.44;;;-1.43;48.04
10115;BME280;5097;43.260;27.812;2023-02-10T09:02:28;102379.00;;;-1.52;46.29
10115;BME280;5097;43.260;27.812;2023-02-10T09:05:12;102328.69;;;-1.58;47.94
10115;BME280;5097;43.260;27.812;2023-02-10T09:07:58;102373.88;;;-1.24;45.81
10115;BME280;5097;43.260;27.812;2023-02-10T09:10:42;102368.56;;;-1.00;45.31
10115;BME280;5097;43.260;27.812;2023-02-10T09:13:26;102377.94;;;-1.32;44.01
10115;BME280;5097;43.260;27.812;2023-02-10T09:16:10;102367.66;;;-1.29;45.12
10115;BME280;5097;43.260;27.812;2023-02-10T09:18:54;102362.34;;;-1.05;44.40
10115;BME280;5097;43.260;27.812;2023-02-10T09:21:38;102365.06;;;-1.01;44.54
10115;BME280;5097;43.260;27.812;2023-02-10T09:24:30;102359.81;;;-0.75;46.23
10115;BME280;5097;43.260;27.812;2023-02-10T09:27:15;102350.09;;;-0.50;44.82
10115;BME280;5097;43.260;27.812;2023-02-10T09:29:59;102356.94;;;-0.84;43.73
10115;BME280;5097;43.260;27.812;2023-02-10T09:32:44;102350.63;;;-0.62;43.52
10115;BME280;5097;43.260;27.812;2023-02-10T09:35:28;102351.28;;;-0.71;43.04
10115;BME280;5097;43.260;27.812;2023-02-10T09:38:13;102318.38;;;-0.40;44.51
10115;BME280;5097;43.260;27.812;2023-02-10T09:41:04;102354.50;;;-0.17;42.92
10115;BME280;5097;43.260;27.812;2023-02-10T09:44:03;102342.41;;;-0.15;42.38
10115;BME280;5097;43.260;27.812;2023-02-10T09:47:08;102341.91;;;-0.34;42.45
10115;BME280;5097;43.260;27.812;2023-02-10T09:50:08;102341.28;;;-0.25;43.46
10115;BME280;5097;43.260;27.812;2023-02-10T09:53:04;102339.38;;;0.00;42.73
10115;BME280;5097;43.260;27.812;2023-02-10T09:55:55;102332.13;;;-0.12;42.24
10115;BME280;5097;43.260;27.812;2023-02-10T09:58:42;102323.94;;;0.08;43.90
10115;BME280;5097;43.260;27.812;2023-02-10T10:01:30;102330.59;;;-0.04;42.93
10115;BME280;5097;43.260;27.812;2023-02-10T10:04:17;102314.59;;;0.14;44.36
10115;BME280;5097;43.260;27.812;2023-02-10T10:07:09;102290.00;;;0.00;43.38
10115;BME280;5097;43.260;27.812;2023-02-10T10:10:00;102312.78;;;0.47;43.57
10115;BME280;5097;43.260;27.812;2023-02-10T10:12:45;102284.75;;;0.33;43.43
10115;BME280;5097;43.260;27.812;2023-02-10T10:15:37;102244.25;;;0.07;42.51
10115;BME280;5097;43.260;27.812;2023-02-10T10:18:28;102283.03;;;0.36;42.73
10115;BME280;5097;43.260;27.812;2023-02-10T10:21:22;102293.06;;;0.57;42.77
10115;BME280;5097;43.260;27.812;2023-02-10T10:24:26;102302.31;;;0.82;41.69
10115;BME280;5097;43.260;27.812;2023-02-10T10:27:22;102292.25;;;0.59;37.28
10115;BME280;5097;43.260;27.812;2023-02-10T10:30:16;102289.22;;;0.79;39.41
10115;BME280;5097;43.260;27.812;2023-02-10T10:33:07;102278.75;;;0.76;38.99
10115;BME280;5097;43.260;27.812;2023-02-10T10:35:57;102273.00;;;0.91;39.35
10115;BME280;5097;43.260;27.812;2023-02-10T10:38:48;102269.78;;;1.03;37.19
10115;BME280;5097;43.260;27.812;2023-02-10T10:41:35;102266.72;;;0.81;38.41
10115;BME280;5097;43.260;27.812;2023-02-10T10:44:21;102257.09;;;1.18;39.03
10115;BME280;5097;43.260;27.812;2023-02-10T10:47:12;102260.97;;;0.96;40.05
10115;BME280;5097;43.260;27.812;2023-02-10T10:50:00;102258.72;;;1.13;38.29
10115;BME280;5097;43.260;27.812;2023-02-10T10:52:49;102254.28;;;1.53;39.98
10115;BME280;5097;43.260;27.812;2023-02-10T10:55:37;102251.91;;;1.67;39.89
10115;BME280;5097;43.260;27.812;2023-02-10T10:58:25;102248.34;;;1.62;38.26
10115;BME280;5097;43.260;27.812;2023-02-10T11:01:12;102249.88;;;1.50;38.68
10115;BME280;5097;43.260;27.812;2023-02-10T11:04:03;102246.84;;;1.27;39.18
10115;BME280;5097;43.260;27.812;2023-02-10T11:06:51;102241.25;;;1.53;39.61
10115;BME280;5097;43.260;27.812;2023-02-10T11:09:38;102229.72;;;1.40;37.72
10115;BME280;5097;43.260;27.812;2023-02-10T11:12:27;102230.84;;;1.55;39.44
10115;BME280;5097;43.260;27.812;2023-02-10T11:15:28;102229.13;;;1.55;40.10
10115;BME280;5097;43.260;27.812;2023-02-10T11:18:16;102230.44;;;1.80;40.10
10115;BME280;5097;43.260;27.812;2023-02-10T11:21:03;102218.13;;;1.72;40.15
10115;BME280;5097;43.260;27.812;2023-02-10T11:23:50;102200.31;;;1.98;40.42
10115;BME280;5097;43.260;27.812;2023-02-10T11:26:35;102207.00;;;1.82;39.12
10115;BME280;5097;43.260;27.812;2023-02-10T11:29:19;102204.75;;;1.52;40.05
10115;BME280;5097;43.260;27.812;2023-02-10T11:32:03;102195.84;;;1.89;39.88
10115;BME280;5097;43.260;27.812;2023-02-10T11:34:49;102194.44;;;1.59;39.27
10115;BME280;5097;43.260;27.812;2023-02-10T11:37:36;102169.47;;;1.71;40.39
10115;BME280;5097;43.260;27.812;2023-02-10T11:40:24;102185.50;;;1.95;39.14
10115;BME280;5097;43.260;27.812;2023-02-10T11:43:12;102197.28;;;1.72;39.41
10115;BME280;5097;43.260;27.812;2023-02-10T11:45:59;102188.53;;;1.19;41.19
10115;BME280;5097;43.260;27.812;2023-02-10T11:48:52;102176.59;;;1.81;41.20
10115;BME280;5097;43.260;27.812;2023-02-10T11:51:35;102189.19;;;2.08;40.52
10115;BME280;5097;43.260;27.812;2023-02-10T11:54:19;102183.31;;;2.23;41.65
10115;BME280;5097;43.260;27.812;2023-02-10T11:57:14;102186.59;;;2.10;41.82
10115;BME280;5097;43.260;27.812;2023-02-10T12:00:21;102172.53;;;2.00;42.86
10115;BME280;5097;43.260;27.812;2023-02-10T12:06:19;102177.66;;;1.94;41.61
10115;BME280;5097;43.260;27.812;2023-02-10T12:09:25;102175.41;;;1.62;42.07
10115;BME280;5097;43.260;27.812;2023-02-10T12:12:18;102137.22;;;1.62;43.34
10115;BME280;5097;43.260;27.812;2023-02-10T12:15:14;102175.28;;;2.09;42.31
10115;BME280;5097;43.260;27.812;2023-02-10T12:18:10;102140.59;;;2.13;42.93
10115;BME280;5097;43.260;27.812;2023-02-10T12:21:06;102168.03;;;2.49;42.08
10115;BME280;5097;43.260;27.812;2023-02-10T12:24:02;102170.84;;;2.66;42.47
10115;BME280;5097;43.260;27.812;2023-02-10T12:26:53;102175.31;;;2.11;43.21
10115;BME280;5097;43.260;27.812;2023-02-10T12:29:49;102160.91;;;2.38;42.15
10115;BME280;5097;43.260;27.812;2023-02-10T12:32:44;102167.97;;;2.46;42.63
10115;BME280;5097;43.260;27.812;2023-02-10T12:35:42;102165.44;;;2.51;42.54
10115;BME280;5097;43.260;27.812;2023-02-10T12:38:42;102169.19;;;2.10;42.90
10115;BME280;5097;43.260;27.812;2023-02-10T12:41:39;102168.72;;;2.38;43.42
10115;BME280;5097;43.260;27.812;2023-02-10T12:44:37;102152.13;;;2.31;43.22
10115;BME280;5097;43.260;27.812;2023-02-10T12:47:34;102169.81;;;2.54;43.28
10115;BME280;5097;43.260;27.812;2023-02-10T12:50:45;102167.69;;;2.25;43.03
10115;BME280;5097;43.260;27.812;2023-02-10T12:53:35;102163.81;;;2.62;42.02
10115;BME280;5097;43.260;27.812;2023-02-10T12:56:23;102163.81;;;2.62;42.88
10115;BME280;5097;43.260;27.812;2023-02-10T12:59:13;102156.44;;;2.29;43.04
10115;BME280;5097;43.260;27.812;2023-02-10T13:02:01;102158.94;;;2.21;42.62
10115;BME280;5097;43.260;27.812;2023-02-10T13:04:53;102150.25;;;2.22;43.99
10115;BME280;5097;43.260;27.812;2023-02-10T13:07:45;102149.56;;;1.74;43.15
10115;BME280;5097;43.260;27.812;2023-02-10T13:10:33;102100.78;;;1.65;43.63
10115;BME280;5097;43.260;27.812;2023-02-10T13:13:23;102152.50;;;1.96;44.33
10115;BME280;5097;43.260;27.812;2023-02-10T13:16:10;102151.72;;;2.03;44.30
10115;BME280;5097;43.260;27.812;2023-02-10T13:19:00;102157.03;;;2.09;42.92
10115;BME280;5097;43.260;27.812;2023-02-10T13:21:53;102153.81;;;2.29;42.63
10115;BME280;5097;43.260;27.812;2023-02-10T13:24:42;102177.56;;;1.88;43.31
10115;BME280;5097;43.260;27.812;2023-02-10T13:27:38;102156.09;;;2.06;44.84
10115;BME280;5097;43.260;27.812;2023-02-10T13:31:05;102145.78;;;2.12;44.92
10115;BME280;5097;43.260;27.812;2023-02-10T13:34:00;102138.56;;;1.95;42.96
10115;BME280;5097;43.260;27.812;2023-02-10T13:36:48;102147.47;;;2.10;42.77
10115;BME280;5097;43.260;27.812;2023-02-10T13:39:36;102156.38;;;2.24;43.39
10115;BME280;5097;43.260;27.812;2023-02-10T13:42:24;102150.41;;;2.33;43.21
10115;BME280;5097;43.260;27.812;2023-02-10T13:45:16;102152.41;;;1.90;43.43
10115;BME280;5097;43.260;27.812;2023-02-10T13:48:01;102145.50;;;1.93;43.34
10115;BME280;5097;43.260;27.812;2023-02-10T13:50:48;102152.38;;;1.88;42.89
10115;BME280;5097;43.260;27.812;2023-02-10T13:53:40;102147.38;;;2.04;43.01
10115;BME280;5097;43.260;27.812;2023-02-10T13:56:28;102149.63;;;1.80;42.08
10115;BME280;5097;43.260;27.812;2023-02-10T13:59:27;102131.34;;;1.76;42.05
10115;BME280;5097;43.260;27.812;2023-02-10T14:02:16;102153.38;;;1.98;42.43
10115;BME280;5097;43.260;27.812;2023-02-10T14:05:02;102143.38;;;1.67;43.32
10115;BME280;5097;43.260;27.812;2023-02-10T14:07:55;102149.50;;;1.71;42.62
10115;BME280;5097;43.260;27.812;2023-02-10T14:10:39;102143.16;;;1.55;42.75
10115;BME280;5097;43.260;27.812;2023-02-10T14:13:27;102150.63;;;1.89;42.93
10115;BME280;5097;43.260;27.812;2023-02-10T14:16:29;102157.59;;;1.88;42.44
10115;BME280;5097;43.260;27.812;2023-02-10T14:19:22;102148.22;;;1.46;42.83
10115;BME280;5097;43.260;27.812;2023-02-10T14:22:21;102148.72;;;1.77;42.19
10115;BME280;5097;43.260;27.812;2023-02-10T14:25:16;102145.06;;;1.65;42.53
10115;BME280;5097;43.260;27.812;2023-02-10T14:28:03;102136.34;;;1.63;41.60
10115;BME280;5097;43.260;27.812;2023-02-10T14:30:53;102101.09;;;1.30;41.84
10115;BME280;5097;43.260;27.812;2023-02-10T14:33:38;102160.22;;;1.38;42.13
10115;BME280;5097;43.260;27.812;2023-02-10T14:36:22;102121.75;;;1.21;42.31
10115;BME280;5097;43.260;27.812;2023-02-10T14:39:14;102138.09;;;1.64;42.86
10115;BME280;5097;43.260;27.812;2023-02-10T14:41:59;102145.81;;;1.08;43.08
10115;BME280;5097;43.260;27.812;2023-02-10T14:44:48;102140.94;;;1.26;42.85
10115;BME280;5097;43.260;27.812;2023-02-10T14:47:35;102140.38;;;1.46;42.82